Big Clifty, Kentucky
Current Conditions -  °F | °C
As of 3:58 PM on Monday 22 Dec 2014 (Local Time) from KFTK Reporting Station
Overcast Overcast  
Wind Chill: 51°   Ceiling: 2700
Heat Index: 51°   Visibility: 10mi
Dew Point: 43°   Wind: 5mph
Humidity: 73%   Direction: 120°ESE
Pressure: 29.74"   Gusts: NA
Location:  37.55°N, 86.15°W
Report Text: KFTK 222158Z AUTO 12004KT 10SM OVC027 11/06 A2974 RMK AO2 SLP077 T01070061
Loading
Personal Weather Stations






























Interactive Weather Map New forecast layout! Learn more

10-Day Weather Forecast

Advertisements
Track Severe Weather on mobile